Pleasant Hill, Iowa
Current Conditions -  °F | °C
As of 5:54 PM on Sunday 21 Dec 2014 (Local Time) from KDSM Reporting Station
Overcast Overcast  
Wind Chill: 36°   Ceiling: 1200
Heat Index: 42°   Visibility: 10mi
Dew Point: 37°   Wind: 12mph
Humidity: 82%   Direction: 170°S
Pressure: 29.81"   Gusts: NA
Location:  41.5827°N, 93.4933°W
Report Text: KDSM 212354Z 17010KT 10SM OVC012 06/03 A2981 RMK AO2 SLP100 T00560028 10061 20050 58003
Loading
Personal Weather Stations






























Interactive Weather Map New forecast layout! Learn more

10-Day Weather Forecast

Advertisements
Track Severe Weather on mobile